Welcome to our new website - Welkom op onze vernieuwde website - Bienvenue sur notre nouveau site web - Willkommen auf unserer neuen Website


Onweer radar Meer informatie blitzortung!


Regen radar Meer informatie rain snow radar


Andere websites:

Onze vorige site

Leuven Template



METAR rapporten vliegvelden

   
EHGG - Leeuwarden
Gewijzigd: 29-03-2020 19:25
Helder  
Helder  
   Wind: NNO 29.6 km/h<br />Gust to 29.6 km/h
Wind: NNO 29.6 km/h
Gust to 29.6 km/h
Temperatuur: 4°C
Voelt als: -1°C
Dauwpunt: -9°C
Vochtigheid: 39%
Barometer: 1035 hPa
Bewolking: Helder
Zicht: meer dan 10 km
Bewolking: Helder
EHGG 291725Z AUTO 03016G26KT 350V070 9999 NCD 04/M09 Q1035 NOSIG
EHGG - Terschelling
Gewijzigd: 29-03-2020 19:25
Helder  
Helder  
   Wind: NNO 29.6 km/h<br />Gust to 29.6 km/h
Wind: NNO 29.6 km/h
Gust to 29.6 km/h
Temperatuur: 4°C
Voelt als: -1°C
Dauwpunt: -9°C
Vochtigheid: 39%
Barometer: 1035 hPa
Bewolking: Helder
Zicht: meer dan 10 km
Bewolking: Helder
EHGG 291725Z AUTO 03016G26KT 350V070 9999 NCD 04/M09 Q1035 NOSIG
EHAM - Amsterdam
Gewijzigd: 29-03-2020 19:25
Licht bewolkt  
Licht bewolkt  
   Wind: NNO 37 km/h<br />Gust to 37 km/h
Wind: NNO 37 km/h
Gust to 37 km/h
Temperatuur: 4°C
Voelt als: -2°C
Dauwpunt: -7°C
Vochtigheid: 45%
Barometer: 1035 hPa
Bewolking: Licht bewolkt
Zicht: meer dan 10 km
Bewolking: Licht bewolkt 4500 ft
EHAM 291725Z 03020G31KT 350V060 9999 FEW045 04/M07 Q1035 NOSIG
EHBK - Maastricht
Gewijzigd: 29-03-2020 19:25
Grotendeels bewolkt  
Grotendeels bewolkt  
   Wind: NNO 29.6 km/h
Wind: NNO 29.6 km/h
Temperatuur: 4°C
Voelt als: -1°C
Dauwpunt: -3°C
Vochtigheid: 61%
Barometer: 1030 hPa
Bewolking: Grotendeels bewolkt
Zicht: meer dan 10 km
Bewolking: Gedeeltelijk bewolkt 3900 ft,
Grotendeels bewolkt 4600 ft
EHBK 291725Z AUTO 03016KT 360V070 9999 SCT039 BKN046 04/M03 Q1030 NOSIG
  

Script ontwikkeld door  Saratoga-weather.org Aangepast voor de template door  Weerstation Leuven

U vindt ons ook hier:

European Weather Network

Weather Underground

AWEKAS

Apparatuur in gebruik:

Weerstation
Davis VP2

Weerprogramma
Cumulus

Davis VP2

Cumulus